Terminal Aerodrome Forecast
Issued by NWS

Home | Current Version | Previous Version | Text Only | Print | Product List | Glossary On
Versions: 1 2 3 4 5 6 7 8 9 10 11 12
000
FTUS44 KBMX 171720
TAFTOI
TAF
KTOI 171720Z 1718/1818 16004KT P6SM OVC018
     FM172000 14003KT 4SM -RA BR OVC018
     FM180600 00000KT 1SM -DZ BR OVC005
     FM181400 17003KT 2SM -DZ BR OVC005=

USA.gov is the U.S. government's official web portal to all federal, state and local government web resources and services.